createdAt,value
2022-12-03T00:02:13.433Z,100804.41
2022-12-03T00:04:40.260Z,100806.97
2022-12-03T00:07:06.937Z,100800.16
2022-12-03T00:09:33.650Z,100800.16
2022-12-03T00:12:00.323Z,100809.56
2022-12-03T00:14:27.034Z,100803.56
2022-12-03T00:16:53.698Z,100809.59
2022-12-03T00:19:20.390Z,100806.97
2022-12-03T00:21:47.078Z,100806.09
2022-12-03T00:24:13.773Z,100813.09
2022-12-03T00:26:43.317Z,100808.78
2022-12-03T00:29:10.046Z,100810.41
2022-12-03T00:31:36.875Z,100805.94
2022-12-03T00:34:03.547Z,100804.31
2022-12-03T00:36:30.136Z,100806.88
2022-12-03T00:38:56.772Z,100805.03
2022-12-03T00:41:23.433Z,100812.06
2022-12-03T00:43:50.129Z,100816.28
2022-12-03T00:46:21.116Z,100808.56
2022-12-03T00:48:48.234Z,100803.28
2022-12-03T00:51:14.854Z,100807.56
2022-12-03T00:53:41.460Z,100810.97
2022-12-03T00:56:08.577Z,100806.63
2022-12-03T00:58:35.256Z,100809.25
2022-12-03T01:01:02.029Z,100814.41
2022-12-03T01:03:28.905Z,100794.47
2022-12-03T01:05:55.623Z,100803.16
2022-12-03T01:08:22.286Z,100809.25
2022-12-03T01:10:48.890Z,100817.03
2022-12-03T01:13:15.599Z,100807.59
2022-12-03T01:15:42.361Z,100817.03
2022-12-03T01:18:09.089Z,100799.63
2022-12-03T01:20:36.530Z,100816.84
2022-12-03T01:23:03.187Z,100814.34
2022-12-03T01:25:29.826Z,100816.97
2022-12-03T01:27:56.525Z,100816.06
2022-12-03T01:30:23.177Z,100827.28
2022-12-03T01:32:49.871Z,100816.13
2022-12-03T01:35:16.648Z,100823.00
2022-12-03T01:37:43.368Z,100825.50
2022-12-03T01:40:12.416Z,100830.56
2022-12-03T01:42:41.294Z,100832.38
2022-12-03T01:45:12.046Z,100822.78
2022-12-03T01:47:38.798Z,100827.16
2022-12-03T01:50:21.632Z,100828.84
2022-12-03T01:52:48.323Z,100828.78
2022-12-03T01:55:18.356Z,100813.16
2022-12-03T01:57:48.224Z,100822.66
2022-12-03T02:00:17.528Z,100820.91
2022-12-03T02:02:44.567Z,100834.66
2022-12-03T02:05:23.108Z,100832.88
2022-12-03T02:07:49.948Z,100839.78
2022-12-03T02:10:20.161Z,100832.91
2022-12-03T02:12:54.767Z,100829.53
2022-12-03T02:15:21.550Z,100825.22
2022-12-03T02:17:48.349Z,100830.19
2022-12-03T02:20:15.051Z,100834.50
2022-12-03T02:22:50.259Z,100848.34
2022-12-03T02:25:18.518Z,100855.22
2022-12-03T02:27:45.280Z,100845.75
2022-12-03T02:30:14.163Z,100848.34
2022-12-03T02:32:40.881Z,100843.09
2022-12-03T02:35:20.204Z,100848.22
2022-12-03T02:37:48.095Z,100843.13
2022-12-03T02:40:19.703Z,100853.44
2022-12-03T02:42:46.976Z,100848.38
2022-12-03T02:45:24.393Z,100849.88
2022-12-03T02:48:11.783Z,100850.81
2022-12-03T02:50:41.825Z,100847.31
2022-12-03T02:53:13.338Z,100853.25
2022-12-03T02:55:40.389Z,100845.44
2022-12-03T02:58:07.381Z,100854.13
2022-12-03T03:00:35.839Z,100853.31
2022-12-03T03:03:05.173Z,100852.28
2022-12-03T03:05:33.385Z,100856.53
2022-12-03T03:08:00.826Z,100857.44
2022-12-03T03:10:28.646Z,100853.00
2022-12-03T03:12:55.792Z,100866.13
2022-12-03T03:15:23.060Z,100859.19
2022-12-03T03:17:49.804Z,100864.34
2022-12-03T03:20:16.789Z,100863.44
2022-12-03T03:22:43.679Z,100862.63
2022-12-03T03:25:13.529Z,100854.75
2022-12-03T03:27:41.122Z,100857.28
2022-12-03T03:30:09.064Z,100860.78
2022-12-03T03:32:36.075Z,100865.91
2022-12-03T03:35:04.009Z,100862.34
2022-12-03T03:37:30.952Z,100875.28
2022-12-03T03:39:57.786Z,100862.31
2022-12-03T03:42:24.710Z,100875.25
2022-12-03T03:44:51.889Z,100883.97
2022-12-03T03:47:19.048Z,100880.38
2022-12-03T03:49:48.054Z,100884.66
2022-12-03T03:52:14.848Z,100894.09
2022-12-03T03:54:41.756Z,100893.94
2022-12-03T03:57:08.421Z,100899.06
2022-12-03T03:59:35.167Z,100900.81
2022-12-03T04:02:01.757Z,100896.50
2022-12-03T04:04:33.269Z,100884.44
2022-12-03T04:07:00.125Z,100900.00
2022-12-03T04:09:26.749Z,100893.88
2022-12-03T04:12:11.668Z,100901.63
2022-12-03T04:14:38.304Z,100905.88
2022-12-03T04:17:04.960Z,100901.50
2022-12-03T04:19:31.650Z,100901.69
2022-12-03T04:22:16.917Z,100901.56
2022-12-03T04:24:43.691Z,100906.00
2022-12-03T04:27:28.857Z,100905.03
2022-12-03T04:29:57.873Z,100911.19
2022-12-03T04:32:43.029Z,100903.34
2022-12-03T04:35:29.204Z,100912.97
2022-12-03T04:37:56.135Z,100923.22
2022-12-03T04:40:41.468Z,100914.59
2022-12-03T04:43:08.129Z,100921.41
2022-12-03T04:45:34.807Z,100920.69
2022-12-03T04:48:01.499Z,100918.94
2022-12-03T04:50:28.188Z,100924.22
2022-12-03T04:52:54.806Z,100926.84
2022-12-03T04:55:21.488Z,100926.81
2022-12-03T04:57:48.093Z,100926.75
2022-12-03T05:00:15.379Z,100918.13
2022-12-03T05:02:42.040Z,100928.44
2022-12-03T05:05:09.304Z,100922.34
2022-12-03T05:07:36.007Z,100935.22
2022-12-03T05:10:03.243Z,100935.28
2022-12-03T05:12:29.839Z,100933.53
2022-12-03T05:14:56.642Z,100939.53
2022-12-03T05:17:23.419Z,100927.50
2022-12-03T05:20:08.651Z,100946.50
2022-12-03T05:22:35.276Z,100948.31
2022-12-03T05:25:02.077Z,100948.09
2022-12-03T05:27:28.832Z,100950.75
2022-12-03T05:29:55.502Z,100947.94
2022-12-03T05:32:22.235Z,100954.09
2022-12-03T05:34:49.059Z,100954.94
2022-12-03T05:37:15.748Z,100953.94
2022-12-03T05:39:42.471Z,100958.34
2022-12-03T05:42:28.244Z,100958.34
2022-12-03T05:44:57.952Z,100958.09
2022-12-03T05:47:24.603Z,100962.53
2022-12-03T05:49:51.210Z,100963.47
2022-12-03T05:52:17.863Z,100966.94
2022-12-03T05:54:44.612Z,100944.25
2022-12-03T05:57:11.208Z,100973.84
2022-12-03T05:59:37.861Z,100982.38
2022-12-03T06:02:04.705Z,100985.78
2022-12-03T06:04:31.423Z,100983.88
2022-12-03T06:06:58.188Z,100974.50
2022-12-03T06:09:24.883Z,100987.59
2022-12-03T06:11:54.228Z,100999.66
2022-12-03T06:14:21.677Z,100992.66
2022-12-03T06:16:48.407Z,101000.34
2022-12-03T06:19:15.113Z,100985.78
2022-12-03T06:21:41.798Z,100994.44
2022-12-03T06:24:08.507Z,100992.56
2022-12-03T06:26:35.197Z,101002.03
2022-12-03T06:29:01.841Z,101008.28
2022-12-03T06:31:28.538Z,101004.78
2022-12-03T06:33:55.357Z,101004.03
2022-12-03T06:36:23.362Z,100999.59
2022-12-03T06:38:50.249Z,101012.56
2022-12-03T06:41:16.892Z,101016.69
2022-12-03T06:43:43.521Z,101016.72
2022-12-03T06:46:10.167Z,101027.91
2022-12-03T06:48:36.909Z,101017.53
2022-12-03T06:51:03.684Z,101024.41
2022-12-03T06:53:30.292Z,101028.59
2022-12-03T06:55:56.979Z,101031.19
2022-12-03T06:58:23.637Z,101031.97
2022-12-03T07:00:50.333Z,101044.16
2022-12-03T07:03:17.089Z,101031.00
2022-12-03T07:05:43.761Z,101040.75
2022-12-03T07:08:10.491Z,101039.00
2022-12-03T07:10:37.307Z,101037.31
2022-12-03T07:13:04.077Z,101031.97
2022-12-03T07:15:30.664Z,101037.50
2022-12-03T07:17:57.321Z,101039.22
2022-12-03T07:20:24.010Z,101043.31
2022-12-03T07:22:50.717Z,101041.44
2022-12-03T07:25:22.895Z,101046.19
2022-12-03T07:27:49.953Z,101046.88
2022-12-03T07:30:17.998Z,101028.75
2022-12-03T07:32:44.714Z,101050.25
2022-12-03T07:35:11.574Z,101044.84
2022-12-03T07:37:38.257Z,101055.06
2022-12-03T07:40:05.728Z,101052.50
2022-12-03T07:42:32.555Z,101059.34
2022-12-03T07:45:01.357Z,101064.72
2022-12-03T07:47:28.172Z,101065.53
2022-12-03T07:49:55.080Z,101066.31
2022-12-03T07:52:21.696Z,101069.72
2022-12-03T07:54:48.656Z,101068.81
2022-12-03T07:57:15.446Z,101068.81
2022-12-03T07:59:42.169Z,101077.59
2022-12-03T08:02:09.521Z,101073.41
2022-12-03T08:04:36.206Z,101067.75
2022-12-03T08:07:02.876Z,101076.31
2022-12-03T08:09:29.642Z,101076.84
2022-12-03T08:11:59.950Z,101070.84
2022-12-03T08:14:27.659Z,101077.75
2022-12-03T08:16:54.386Z,101078.84
2022-12-03T08:19:21.239Z,101082.59
2022-12-03T08:21:47.957Z,101075.53
2022-12-03T08:24:20.022Z,101071.56
2022-12-03T08:26:48.791Z,101065.75
2022-12-03T08:29:18.198Z,101058.69
2022-12-03T08:31:50.003Z,101075.72
2022-12-03T08:34:19.713Z,101072.84
2022-12-03T08:36:48.074Z,101066.94
2022-12-03T08:39:33.843Z,101060.34
2022-12-03T08:42:43.167Z,101061.19
2022-12-03T08:45:35.271Z,101068.25
2022-12-03T08:48:06.291Z,101062.06
2022-12-03T08:50:38.876Z,101055.41
2022-12-03T08:53:14.432Z,101065.66
2022-12-03T08:56:19.324Z,101064.84
2022-12-03T08:59:41.435Z,101063.06
2022-12-03T09:02:13.713Z,101056.69
2022-12-03T09:04:49.476Z,101068.00
2022-12-03T09:07:16.252Z,101058.53
2022-12-03T09:09:43.245Z,101064.63
2022-12-03T09:12:09.838Z,101063.63
2022-12-03T09:14:36.490Z,101063.41
2022-12-03T09:17:03.253Z,101058.41
2022-12-03T09:19:32.754Z,101058.25
2022-12-03T09:21:59.408Z,101061.66
2022-12-03T09:24:26.046Z,101068.97
2022-12-03T09:26:52.735Z,101064.00
2022-12-03T09:29:19.512Z,101063.91
2022-12-03T09:31:46.327Z,101066.06
2022-12-03T09:34:13.168Z,101059.25
2022-12-03T09:36:39.996Z,101060.22
2022-12-03T09:39:06.778Z,101060.59
2022-12-03T09:41:33.721Z,101070.41
2022-12-03T09:44:05.615Z,101076.44
2022-12-03T09:46:34.676Z,101071.16
2022-12-03T09:49:02.057Z,101074.41
2022-12-03T09:51:33.586Z,101076.63
2022-12-03T09:54:02.111Z,101075.59
2022-12-03T09:56:28.952Z,101064.03
2022-12-03T09:58:55.885Z,101088.25
2022-12-03T10:01:25.020Z,101080.78
2022-12-03T10:03:54.709Z,101091.00
2022-12-03T10:06:23.636Z,101086.16
2022-12-03T10:08:54.650Z,101095.59
2022-12-03T10:11:23.684Z,101097.88
2022-12-03T10:13:51.082Z,101084.63
2022-12-03T10:16:22.396Z,101092.66
2022-12-03T10:18:52.428Z,101099.22
2022-12-03T10:21:25.942Z,101084.09
2022-12-03T10:24:18.152Z,101096.19
2022-12-03T10:26:46.551Z,101088.38
2022-12-03T10:29:20.663Z,101093.47
2022-12-03T10:31:55.614Z,101096.22
2022-12-03T10:34:31.609Z,101091.59
2022-12-03T10:37:21.865Z,101093.56
2022-12-03T10:39:58.595Z,101088.47
2022-12-03T10:42:31.164Z,101093.34
2022-12-03T10:45:21.014Z,101092.88
2022-12-03T10:48:06.353Z,101091.75
2022-12-03T10:50:33.890Z,101093.56
2022-12-03T10:53:00.713Z,101079.41
2022-12-03T10:55:29.555Z,101089.56
2022-12-03T10:57:56.204Z,101097.50
2022-12-03T11:00:23.425Z,101086.69
2022-12-03T11:02:56.345Z,101079.16
2022-12-03T11:05:29.326Z,101098.50
2022-12-03T11:07:56.735Z,101104.06
2022-12-03T11:10:23.834Z,101111.16
2022-12-03T11:13:28.575Z,101115.03
2022-12-03T11:15:55.572Z,101110.78
2022-12-03T11:18:37.537Z,101115.06
2022-12-03T11:21:07.616Z,101114.72
2022-12-03T11:23:46.415Z,101110.88
2022-12-03T11:26:18.834Z,101115.75
2022-12-03T11:28:46.308Z,101126.34
2022-12-03T11:31:34.475Z,101129.72
2022-12-03T11:34:25.447Z,101131.69
2022-12-03T11:37:10.439Z,101122.59
2022-12-03T11:39:52.809Z,101112.63
2022-12-03T11:42:25.941Z,101126.66
2022-12-03T11:45:05.356Z,101117.13
2022-12-03T11:47:39.554Z,101118.72
2022-12-03T11:50:18.152Z,101138.22
2022-12-03T11:52:46.028Z,101132.69
2022-12-03T11:55:37.111Z,101139.63
2022-12-03T11:58:12.906Z,101134.84
2022-12-03T12:00:39.506Z,101133.59
2022-12-03T12:03:22.092Z,101135.91
2022-12-03T12:06:01.612Z,101129.94
2022-12-03T12:08:28.231Z,101131.38
2022-12-03T12:10:54.922Z,101144.78
2022-12-03T12:13:44.941Z,101146.66
2022-12-03T12:16:11.842Z,101136.09
2022-12-03T12:18:47.257Z,101144.19
2022-12-03T12:21:43.889Z,101148.94
2022-12-03T12:24:40.543Z,101156.06
2022-12-03T12:27:13.285Z,101144.72
2022-12-03T12:29:41.728Z,101153.19
2022-12-03T12:32:15.256Z,101164.97
2022-12-03T12:34:49.834Z,101144.38
2022-12-03T12:37:36.295Z,101166.56
2022-12-03T12:40:12.256Z,101169.16
2022-12-03T12:42:52.328Z,101173.41
2022-12-03T12:45:23.214Z,101172.44
2022-12-03T12:48:03.238Z,101173.78
2022-12-03T12:50:31.282Z,101174.53
2022-12-03T12:53:02.723Z,101183.25
2022-12-03T12:55:29.403Z,101185.22
2022-12-03T12:58:00.299Z,101188.09
2022-12-03T13:00:27.069Z,101202.28
2022-12-03T13:02:55.102Z,101200.66
2022-12-03T13:05:22.067Z,101197.78
2022-12-03T13:07:48.754Z,101201.31
2022-12-03T13:10:35.182Z,101201.09
2022-12-03T13:13:32.023Z,101205.25
2022-12-03T13:16:07.172Z,101205.25
2022-12-03T13:18:37.018Z,101212.78
2022-12-03T13:21:17.416Z,101213.69
2022-12-03T13:23:44.089Z,101206.41
2022-12-03T13:26:39.277Z,101209.59
2022-12-03T13:29:16.520Z,101213.56
2022-12-03T13:32:09.964Z,101221.22
2022-12-03T13:34:36.737Z,101220.38
2022-12-03T13:37:09.056Z,101210.13
2022-12-03T13:39:38.263Z,101225.78
2022-12-03T13:42:26.680Z,101221.47
2022-12-03T13:44:53.750Z,101232.63
2022-12-03T13:47:22.966Z,101226.28
2022-12-03T13:49:55.612Z,101221.72
2022-12-03T13:52:25.469Z,101223.72
2022-12-03T13:54:54.501Z,101227.94
2022-12-03T13:57:21.299Z,101237.50
2022-12-03T13:59:47.937Z,101233.19
2022-12-03T14:02:14.615Z,101231.59
2022-12-03T14:04:41.797Z,101230.63
2022-12-03T14:07:08.462Z,101231.53
2022-12-03T14:09:35.098Z,101229.72
2022-12-03T14:12:20.136Z,101241.22
2022-12-03T14:14:46.904Z,101239.34
2022-12-03T14:17:13.605Z,101242.16
2022-12-03T14:19:40.351Z,101233.19
2022-12-03T14:22:09.325Z,101237.34
2022-12-03T14:24:37.057Z,101231.28
2022-12-03T14:27:03.796Z,101226.09
2022-12-03T14:29:30.448Z,101232.09
2022-12-03T14:31:57.226Z,101229.41
2022-12-03T14:34:23.984Z,101225.28
2022-12-03T14:36:50.703Z,101230.28
2022-12-03T14:39:17.527Z,101218.94
2022-12-03T14:42:02.827Z,101233.84
2022-12-03T14:44:29.529Z,101242.63
2022-12-03T14:46:57.449Z,101241.53
2022-12-03T14:49:24.440Z,101234.84
2022-12-03T14:51:51.088Z,101240.66
2022-12-03T14:54:17.816Z,101244.09
2022-12-03T14:56:44.559Z,101241.44
2022-12-03T14:59:11.314Z,101241.50
2022-12-03T15:01:38.061Z,101234.88
2022-12-03T15:04:05.215Z,101245.31
2022-12-03T15:06:31.941Z,101246.06
2022-12-03T15:08:58.532Z,101241.06
2022-12-03T15:11:25.249Z,101240.25
2022-12-03T15:13:51.983Z,101234.19
2022-12-03T15:16:19.093Z,101243.72
2022-12-03T15:18:45.701Z,101243.69
2022-12-03T15:21:12.390Z,101252.47
2022-12-03T15:23:39.329Z,101257.66
2022-12-03T15:26:06.163Z,101246.56
2022-12-03T15:28:32.917Z,101268.13
2022-12-03T15:30:59.666Z,101257.94
2022-12-03T15:33:26.443Z,101255.06
2022-12-03T15:35:53.105Z,101266.53
2022-12-03T15:38:19.835Z,101267.38
2022-12-03T15:40:46.615Z,101268.47
2022-12-03T15:43:13.440Z,101269.50
2022-12-03T15:45:40.292Z,101268.53
2022-12-03T15:48:07.105Z,101266.75
2022-12-03T15:50:39.721Z,101248.69
2022-12-03T15:53:06.905Z,101270.59
2022-12-03T15:55:33.503Z,101261.25
2022-12-03T15:58:00.265Z,101271.03
2022-12-03T16:00:26.909Z,101256.28
2022-12-03T16:02:53.708Z,101275.44
2022-12-03T16:05:20.422Z,101271.25
2022-12-03T16:07:47.101Z,101264.53
2022-12-03T16:10:13.795Z,101267.31
2022-12-03T16:12:40.553Z,101256.16
2022-12-03T16:15:07.497Z,101261.47
2022-12-03T16:17:34.240Z,101276.28
2022-12-03T16:20:00.911Z,101262.47
2022-12-03T16:22:27.591Z,101271.16
2022-12-03T16:24:54.335Z,101280.69
2022-12-03T16:27:25.475Z,101269.59
2022-12-03T16:29:53.025Z,101274.00
2022-12-03T16:32:19.957Z,101282.72
2022-12-03T16:34:46.621Z,101281.06
2022-12-03T16:37:13.512Z,101284.41
2022-12-03T16:39:40.307Z,101287.16
2022-12-03T16:42:11.773Z,101275.00
2022-12-03T16:45:14.744Z,101288.75
2022-12-03T16:47:41.363Z,101289.44
2022-12-03T16:50:14.132Z,101294.00
2022-12-03T16:52:46.550Z,101293.19
2022-12-03T16:55:13.208Z,101298.22
2022-12-03T16:57:39.875Z,101297.31
2022-12-03T17:00:07.720Z,101281.59
2022-12-03T17:02:34.428Z,101304.00
2022-12-03T17:05:01.082Z,101301.38
2022-12-03T17:07:27.754Z,101301.16
2022-12-03T17:09:54.706Z,101302.88
2022-12-03T17:12:21.465Z,101302.66
2022-12-03T17:14:48.136Z,101304.53
2022-12-03T17:17:14.723Z,101309.44
2022-12-03T17:19:41.296Z,101323.31
2022-12-03T17:22:07.899Z,101324.97
2022-12-03T17:24:34.832Z,101322.38
2022-12-03T17:27:01.424Z,101316.13
2022-12-03T17:29:28.145Z,101317.97
2022-12-03T17:31:54.908Z,101321.25
2022-12-03T17:34:21.629Z,101322.97
2022-12-03T17:36:51.111Z,101330.94
2022-12-03T17:39:17.779Z,101333.25
2022-12-03T17:41:44.372Z,101339.34
2022-12-03T17:44:15.061Z,101332.38
2022-12-03T17:46:44.702Z,101336.66
2022-12-03T17:49:11.316Z,101338.31
2022-12-03T17:51:39.425Z,101333.97
2022-12-03T17:54:06.057Z,101340.94
2022-12-03T17:56:32.981Z,101331.41
2022-12-03T17:58:59.664Z,101349.44
2022-12-03T18:01:26.319Z,101345.06
2022-12-03T18:03:53.120Z,101351.13
2022-12-03T18:06:19.827Z,101352.75
2022-12-03T18:08:46.456Z,101351.13
2022-12-03T18:11:13.110Z,101357.66
2022-12-03T18:13:39.741Z,101353.59
2022-12-03T18:16:06.595Z,101352.59
2022-12-03T18:18:33.355Z,101356.09
2022-12-03T18:21:02.217Z,101358.00
2022-12-03T18:23:29.187Z,101335.97
2022-12-03T18:25:56.391Z,101359.66
2022-12-03T18:28:23.383Z,101368.88
2022-12-03T18:30:52.766Z,101357.59
2022-12-03T18:33:21.474Z,101370.28
2022-12-03T18:35:48.329Z,101354.84
2022-12-03T18:38:16.178Z,101366.94
2022-12-03T18:40:43.675Z,101375.63
2022-12-03T18:43:14.501Z,101374.75
2022-12-03T18:45:41.794Z,101378.84
2022-12-03T18:48:13.252Z,101384.00
2022-12-03T18:50:40.368Z,101383.16
2022-12-03T18:53:10.605Z,101393.84
2022-12-03T18:55:37.748Z,101392.59
2022-12-03T18:58:04.597Z,101394.72
2022-12-03T19:00:31.991Z,101387.13
2022-12-03T19:03:03.610Z,101398.81
2022-12-03T19:05:33.044Z,101386.81
2022-12-03T19:07:59.894Z,101401.38
2022-12-03T19:10:26.725Z,101404.91
2022-12-03T19:12:53.364Z,101398.81
2022-12-03T19:15:20.008Z,101409.72
2022-12-03T19:17:49.972Z,101401.72
2022-12-03T19:20:16.786Z,101400.09
2022-12-03T19:22:43.416Z,101399.16
2022-12-03T19:25:10.128Z,101403.19
2022-12-03T19:27:36.840Z,101421.19
2022-12-03T19:30:04.241Z,101405.88
2022-12-03T19:32:30.920Z,101405.63
2022-12-03T19:34:57.557Z,101400.38
2022-12-03T19:37:26.616Z,101401.13
2022-12-03T19:39:54.217Z,101405.50
2022-12-03T19:42:21.324Z,101413.03
2022-12-03T19:44:48.032Z,101416.31
2022-12-03T19:47:14.760Z,101426.44
2022-12-03T19:49:41.442Z,101429.75
2022-12-03T19:52:08.314Z,101427.06
2022-12-03T19:54:34.950Z,101422.16
2022-12-03T19:57:01.729Z,101433.22
2022-12-03T19:59:28.453Z,101435.66
2022-12-03T20:01:55.206Z,101416.41
2022-12-03T20:04:22.028Z,101424.69
2022-12-03T20:06:48.804Z,101440.25
2022-12-03T20:09:18.016Z,101452.31
2022-12-03T20:11:45.996Z,101443.50
2022-12-03T20:14:15.482Z,101451.13
2022-12-03T20:16:42.994Z,101450.88
2022-12-03T20:19:11.937Z,101445.81
2022-12-03T20:21:39.642Z,101455.25
2022-12-03T20:24:07.076Z,101455.81
2022-12-03T20:26:34.161Z,101431.41
2022-12-03T20:29:01.237Z,101444.81
2022-12-03T20:31:30.168Z,101448.50
2022-12-03T20:34:00.119Z,101452.63
2022-12-03T20:36:28.318Z,101450.00
2022-12-03T20:39:00.312Z,101452.56
2022-12-03T20:41:27.619Z,101457.34
2022-12-03T20:43:54.769Z,101454.53
2022-12-03T20:46:23.962Z,101449.34
2022-12-03T20:48:50.695Z,101450.91
2022-12-03T20:51:20.110Z,101455.81
2022-12-03T20:53:47.849Z,101450.03
2022-12-03T20:56:20.306Z,101448.53
2022-12-03T20:58:50.467Z,101449.13
2022-12-03T21:01:19.607Z,101453.13
2022-12-03T21:03:46.823Z,101453.06
2022-12-03T21:06:14.053Z,101459.09
2022-12-03T21:08:42.423Z,101451.91
2022-12-03T21:11:15.429Z,101466.47
2022-12-03T21:13:43.904Z,101464.44
2022-12-03T21:16:13.316Z,101474.63
2022-12-03T21:18:40.253Z,101465.38
2022-12-03T21:21:08.636Z,101458.41
2022-12-03T21:23:35.694Z,101469.16
2022-12-03T21:26:16.977Z,101475.38
2022-12-03T21:28:45.270Z,101470.41
2022-12-03T21:31:14.727Z,101466.00
2022-12-03T21:33:41.784Z,101469.63
2022-12-03T21:36:09.303Z,101474.28
2022-12-03T21:38:36.675Z,101470.84
2022-12-03T21:41:04.236Z,101469.84
2022-12-03T21:43:32.357Z,101460.06
2022-12-03T21:45:58.996Z,101460.88
2022-12-03T21:48:25.635Z,101465.94
2022-12-03T21:50:59.982Z,101475.03
2022-12-03T21:53:27.078Z,101464.09
2022-12-03T21:55:53.726Z,101470.38
2022-12-03T21:58:20.374Z,101471.41
2022-12-03T22:00:47.035Z,101473.75
2022-12-03T22:03:13.938Z,101468.41
2022-12-03T22:05:40.752Z,101473.53
2022-12-03T22:08:07.861Z,101470.97
2022-12-03T22:10:35.823Z,101474.63
2022-12-03T22:13:02.833Z,101478.88
2022-12-03T22:15:29.529Z,101484.94
2022-12-03T22:17:56.250Z,101481.56
2022-12-03T22:20:22.930Z,101480.53
2022-12-03T22:22:49.669Z,101480.59
2022-12-03T22:25:16.496Z,101475.09
2022-12-03T22:27:43.134Z,101476.63
2022-12-03T22:30:09.975Z,101485.97
2022-12-03T22:32:36.652Z,101484.28
2022-12-03T22:35:03.391Z,101482.13
2022-12-03T22:37:30.030Z,101483.53
2022-12-03T22:39:57.043Z,101484.69
2022-12-03T22:42:23.979Z,101481.06
2022-12-03T22:44:50.689Z,101466.00
2022-12-03T22:47:17.315Z,101468.41
2022-12-03T22:49:43.985Z,101479.97
2022-12-03T22:52:10.608Z,101476.66
2022-12-03T22:54:37.291Z,101481.56
2022-12-03T22:57:03.996Z,101477.91
2022-12-03T22:59:30.808Z,101477.06
2022-12-03T23:01:57.498Z,101475.50
2022-12-03T23:04:24.153Z,101467.75
2022-12-03T23:06:50.815Z,101477.78
2022-12-03T23:09:17.486Z,101472.59
2022-12-03T23:11:45.493Z,101483.50
2022-12-03T23:14:12.901Z,101484.22
2022-12-03T23:16:39.812Z,101479.31
2022-12-03T23:19:06.560Z,101480.72
2022-12-03T23:21:34.612Z,101481.66
2022-12-03T23:24:03.447Z,101478.88
2022-12-03T23:26:30.505Z,101476.41
2022-12-03T23:28:57.309Z,101488.38
2022-12-03T23:31:29.632Z,101483.19
2022-12-03T23:33:57.394Z,101486.56
2022-12-03T23:36:25.727Z,101493.44
2022-12-03T23:38:52.666Z,101489.03
2022-12-03T23:41:20.893Z,101493.06
2022-12-03T23:43:47.775Z,101488.81
2022-12-03T23:46:18.074Z,101494.81
2022-12-03T23:48:45.627Z,101496.56
2022-12-03T23:51:17.901Z,101505.91
2022-12-03T23:53:44.998Z,101506.00
2022-12-03T23:56:20.844Z,101499.72
2022-12-03T23:58:48.055Z,101507.50
